Time;durP1;ratioP1;P1;durP2;ratioP2;P2;SDS_P1;SDS_P2;PMS_P1;PMS_P2;Temp;Humidity;BMP_temperature;BMP_pressure;BME280_temperature;BME280_humidity;BME280_pressure;Samples;Min_cycle;Max_cycle;Signal;HPM_P1;HPM_P2
2022/09/01 00:01:11;;;;;;;;;;;;;;;16.94;58.58;102072.16;5116221;28;20273;-34
2022/09/01 00:03:37;;;;;;;;;;;;;;;16.96;58.17;102073.56;5116182;28;19916;-34
2022/09/01 00:06:02;;;;;;;;;;;;;;;16.94;59.94;102070.25;5116123;28;19918;-35
2022/09/01 00:08:28;;;;;;;;;;;;;;;16.95;59.72;102068.34;5116431;28;19912;-34
2022/09/01 00:10:53;;;;;;;;;;;;;;;16.93;59.27;102071.34;5115884;28;20366;-34
2022/09/01 00:13:18;;;;;;;;;;;;;;;16.95;60.02;102068.34;5115844;28;20379;-34
2022/09/01 00:15:44;;;;;;;;;;;;;;;16.94;59.02;102061.25;5115433;28;20363;-34
2022/09/01 00:18:09;;;;;;;;;;;;;;;16.94;59.44;102062.06;5115752;28;19912;-34
2022/09/01 00:20:34;;;;;;;;;;;;;;;16.94;59.41;102070.25;5115316;28;19912;-34
2022/09/01 00:22:59;;;;;;;;;;;;;;;16.95;59.38;102063.72;5115252;28;20026;-34
2022/09/01 00:25:26;;;;;;;;;;;;;;;16.98;59.31;102060.50;5115558;28;20002;-34
2022/09/01 00:27:52;;;;;;;;;;;;;;;16.91;61.42;102064.44;5115981;28;20312;-34
2022/09/01 00:30:17;;;;;;;;;;;;;;;16.88;60.52;102064.91;5115483;28;20010;-34
2022/09/01 00:32:45;;;;;;;;;;;;;;;16.88;60.22;102062.19;5115264;28;20056;-35
2022/09/01 00:35:11;;;;;;;;;;;;;;;16.87;60.17;102061.38;5115535;28;19911;-34
2022/09/01 00:37:36;;;;;;;;;;;;;;;16.88;60.41;102064.91;5115018;28;19912;-34
2022/09/01 00:40:02;;;;;;;;;;;;;;;16.82;61.85;102068.63;5115253;28;19912;-34
2022/09/01 00:42:28;;;;;;;;;;;;;;;16.80;60.24;102059.88;5115886;28;20011;-34
2022/09/01 00:44:53;;;;;;;;;;;;;;;16.79;61.27;102066.38;5115428;28;20354;-34
2022/09/01 00:47:19;;;;;;;;;;;;;;;16.66;62.19;102056.53;5115084;28;19921;-34
2022/09/01 00:49:45;;;;;;;;;;;;;;;16.64;62.81;102059.53;5114700;28;19939;-34
2022/09/01 00:52:16;;;;;;;;;;;;;;;16.65;62.97;102053.00;5115486;28;20002;-34
2022/09/01 00:54:43;;;;;;;;;;;;;;;16.65;62.49;102054.91;5115413;28;20328;-34
2022/09/01 00:57:11;;;;;;;;;;;;;;;16.62;62.70;102048.00;5115424;28;20003;-34
2022/09/01 00:59:41;;;;;;;;;;;;;;;16.59;62.74;102053.97;5115170;28;20293;-34
2022/09/01 01:02:06;;;;;;;;;;;;;;;16.58;62.01;102057.75;5115512;27;19986;-34
2022/09/01 01:04:31;;;;;;;;;;;;;;;16.57;64.07;102058.81;5114726;27;19911;-34
2022/09/01 01:07:01;;;;;;;;;;;;;;;16.54;62.88;102058.47;5114976;28;19945;-34
2022/09/01 01:09:27;;;;;;;;;;;;;;;16.41;65.05;102060.41;5114581;28;19911;-34
2022/09/01 01:11:53;;;;;;;;;;;;;;;16.38;63.43;102047.22;5114941;28;20363;-34
2022/09/01 01:14:18;;;;;;;;;;;;;;;16.39;64.02;102050.78;5115108;28;19911;-34
2022/09/01 01:16:45;;;;;;;;;;;;;;;16.26;66.04;102051.06;5115041;28;19964;-34
2022/09/01 01:24:54;;;;;;;;;;;;;;;16.20;65.79;102045.50;5114485;28;20380;-34
2022/09/01 01:27:20;;;;;;;;;;;;;;;16.20;65.38;102050.09;5114406;28;20422;-34
2022/09/01 01:29:46;;;;;;;;;;;;;;;16.13;66.36;102047.50;5114788;28;20259;-34
2022/09/01 01:32:11;;;;;;;;;;;;;;;16.03;66.97;102036.38;5115101;28;20001;-34
2022/09/01 01:34:38;;;;;;;;;;;;;;;16.03;66.77;102052.75;5113939;28;20338;-34
2022/09/01 01:37:04;;;;;;;;;;;;;;;16.05;67.26;102047.03;5114497;28;19911;-34
2022/09/01 01:39:29;;;;;;;;;;;;;;;16.06;65.61;102051.44;5114408;28;20419;-34
2022/09/01 01:41:56;;;;;;;;;;;;;;;16.04;67.56;102048.09;5114148;28;19978;-34
2022/09/01 01:44:23;;;;;;;;;;;;;;;16.03;66.01;102050.00;5113966;28;19919;-33
2022/09/01 01:46:50;;;;;;;;;;;;;;;16.05;67.07;102055.22;5114316;28;19912;-33
2022/09/01 01:49:19;;;;;;;;;;;;;;;16.06;66.14;102052.28;5113671;28;19920;-34
2022/09/01 01:51:51;;;;;;;;;;;;;;;16.03;67.19;102055.47;5114302;28;19912;-34
2022/09/01 01:54:18;;;;;;;;;;;;;;;15.98;67.26;102055.34;5113958;28;19912;-34
2022/09/01 01:56:44;;;;;;;;;;;;;;;15.96;67.56;102055.59;5113908;28;19912;-34
2022/09/01 01:59:13;;;;;;;;;;;;;;;16.00;65.54;102055.94;5113535;28;19915;-34
2022/09/01 02:01:41;;;;;;;;;;;;;;;16.05;65.95;102060.69;5114460;28;19912;-34
2022/09/01 02:04:08;;;;;;;;;;;;;;;16.02;66.45;102053.81;5113444;28;19912;-34
2022/09/01 02:06:34;;;;;;;;;;;;;;;16.00;67.42;102060.56;5114386;28;19918;-34
2022/09/01 02:09:00;;;;;;;;;;;;;;;15.93;67.48;102055.22;5114466;28;19916;-34
2022/09/01 02:11:26;;;;;;;;;;;;;;;15.93;66.55;102050.59;5113558;28;19960;-34
2022/09/01 02:13:55;;;;;;;;;;;;;;;15.85;67.42;102052.84;5114595;28;19922;-34
2022/09/01 02:16:21;;;;;;;;;;;;;;;15.84;66.79;102057.47;5113705;28;20356;-34
2022/09/01 02:18:47;;;;;;;;;;;;;;;15.88;66.31;102058.66;5113784;28;19912;-34
2022/09/01 02:21:18;;;;;;;;;;;;;;;15.88;67.58;102060.56;5113885;28;19916;-35
2022/09/01 02:23:44;;;;;;;;;;;;;;;15.86;67.72;102058.09;5113570;28;19919;-34
2022/09/01 02:26:10;;;;;;;;;;;;;;;15.87;67.00;102064.38;5113385;28;19965;-34
2022/09/01 02:28:38;;;;;;;;;;;;;;;15.85;67.98;102063.75;5113380;28;19912;-34
2022/09/01 02:31:07;;;;;;;;;;;;;;;15.83;66.37;102057.72;5113524;28;20363;-34
2022/09/01 02:33:33;;;;;;;;;;;;;;;15.80;67.30;102060.91;5113621;28;19919;-34
2022/09/01 02:36:00;;;;;;;;;;;;;;;15.80;66.39;102050.81;5113802;28;19912;-33
2022/09/01 02:38:28;;;;;;;;;;;;;;;15.82;66.75;102056.06;5113525;28;19918;-34
2022/09/01 02:40:54;;;;;;;;;;;;;;;15.82;66.80;102059.63;5114478;28;19912;-34
2022/09/01 02:43:20;;;;;;;;;;;;;;;15.75;68.32;102050.72;5113694;28;19915;-34
2022/09/01 02:45:56;;;;;;;;;;;;;;;15.67;67.93;102053.81;5113223;28;20431;-33
2022/09/01 02:48:25;;;;;;;;;;;;;;;15.66;67.57;102054.84;5116956;28;19919;-34
2022/09/01 02:50:51;;;;;;;;;;;;;;;15.60;68.30;102050.31;5117090;28;20289;-34
2022/09/01 02:53:16;;;;;;;;;;;;;;;15.56;68.44;102049.94;5117433;28;19912;-34
2022/09/01 02:55:42;;;;;;;;;;;;;;;15.55;67.19;102047.47;5116987;28;19919;-34
2022/09/01 02:58:09;;;;;;;;;;;;;;;15.56;66.69;102049.94;5117336;28;20010;-34
2022/09/01 03:00:38;;;;;;;;;;;;;;;15.57;67.54;102043.44;5117446;28;19916;-34
2022/09/01 03:03:04;;;;;;;;;;;;;;;15.55;66.83;102042.84;5117656;28;19964;-34
2022/09/01 03:05:30;;;;;;;;;;;;;;;15.56;67.81;102040.94;5117126;28;19912;-34
2022/09/01 03:07:56;;;;;;;;;;;;;;;15.52;68.79;102042.47;5117342;28;19918;-34
2022/09/01 03:10:29;;;;;;;;;;;;;;;15.48;66.85;102047.59;5116717;28;19957;-34
2022/09/01 03:12:54;;;;;;;;;;;;;;;15.49;67.49;102049.22;5117227;28;20367;-34
2022/09/01 03:15:20;;;;;;;;;;;;;;;15.43;69.00;102047.47;5117467;28;20007;-34
2022/09/01 03:17:47;;;;;;;;;;;;;;;15.35;67.86;102048.59;5117373;28;19911;-34
2022/09/01 03:20:12;;;;;;;;;;;;;;;15.34;67.68;102040.69;5117233;28;19912;-34
2022/09/01 03:22:37;;;;;;;;;;;;;;;15.33;67.99;102044.47;5116490;28;19918;-34
2022/09/01 03:25:03;;;;;;;;;;;;;;;15.31;67.47;102041.97;5116429;28;20007;-34
2022/09/01 03:27:28;;;;;;;;;;;;;;;15.29;69.02;102043.28;5116612;28;19920;-34
2022/09/01 03:29:53;;;;;;;;;;;;;;;15.26;68.05;102030.09;5116387;28;19911;-34
2022/09/01 03:32:19;;;;;;;;;;;;;;;15.23;70.15;102033.31;5116420;28;20278;-34
2022/09/01 03:34:44;;;;;;;;;;;;;;;15.16;68.92;102033.41;5116584;28;19912;-35
2022/09/01 03:37:11;;;;;;;;;;;;;;;15.14;68.40;102030.91;5117192;28;19935;-35
2022/09/01 03:39:36;;;;;;;;;;;;;;;15.18;68.49;102037.56;5116171;28;20391;-35
2022/09/01 03:42:01;;;;;;;;;;;;;;;15.18;67.75;102034.00;5116453;28;19920;-34
2022/09/01 03:44:27;;;;;;;;;;;;;;;15.19;67.81;102036.50;5116370;28;19918;-34
2022/09/01 03:46:52;;;;;;;;;;;;;;;15.17;68.04;102038.59;5116380;28;20378;-35
2022/09/01 03:49:26;;;;;;;;;;;;;;;15.18;67.54;102037.56;5116037;28;19911;-34
2022/09/01 03:51:52;;;;;;;;;;;;;;;15.19;67.58;102041.13;5116540;28;19923;-34
2022/09/01 03:54:18;;;;;;;;;;;;;;;15.18;68.08;102034.00;5116336;28;20363;-35
2022/09/01 03:56:44;;;;;;;;;;;;;;;15.08;70.56;102039.16;5116766;28;19960;-34
2022/09/01 03:59:15;;;;;;;;;;;;;;;15.07;68.56;102043.78;5116007;27;20295;-34
2022/09/01 04:01:42;;;;;;;;;;;;;;;15.01;69.16;102036.53;5116301;28;19981;-34
2022/09/01 04:04:07;;;;;;;;;;;;;;;14.97;69.51;102032.63;5116400;28;19935;-35
2022/09/01 04:06:33;;;;;;;;;;;;;;;14.89;70.10;102033.78;5116013;28;20355;-35
2022/09/01 04:09:01;;;;;;;;;;;;;;;14.84;70.77;102035.56;5115988;28;20458;-35
2022/09/01 04:11:27;;;;;;;;;;;;;;;14.78;70.60;102031.00;5115884;28;19920;-34
2022/09/01 04:13:53;;;;;;;;;;;;;;;14.78;69.16;102031.00;5115846;28;19922;-35
2022/09/01 04:19:14;;;;;;;;;;;;;;;14.77;69.45;102032.91;5116261;28;19918;-34
2022/09/01 04:21:41;;;;;;;;;;;;;;;14.78;68.23;102031.00;5115949;28;20355;-34
2022/09/01 04:24:09;;;;;;;;;;;;;;;14.78;68.48;102031.81;5115581;28;19943;-35
2022/09/01 04:26:34;;;;;;;;;;;;;;;14.70;69.37;102039.50;5115331;28;19912;-34
2022/09/01 04:28:59;;;;;;;;;;;;;;;14.61;70.77;102039.81;5115819;28;19919;-34
2022/09/01 04:31:25;;;;;;;;;;;;;;;14.58;70.47;102037.53;5115991;28;19919;-34
2022/09/01 04:33:54;;;;;;;;;;;;;;;14.59;69.48;102036.50;5115501;28;20340;-35
2022/09/01 04:36:26;;;;;;;;;;;;;;;14.55;71.07;102040.72;5116076;28;19911;-34
2022/09/01 04:38:56;;;;;;;;;;;;;;;14.51;70.51;102042.25;5115334;28;19967;-34
2022/09/01 04:41:24;;;;;;;;;;;;;;;14.51;69.60;102036.81;5115348;28;19915;-34
2022/09/01 04:43:50;;;;;;;;;;;;;;;14.54;69.00;102036.34;5115150;28;19964;-35
2022/09/01 04:46:17;;;;;;;;;;;;;;;14.55;69.58;102043.44;5114123;28;20018;-34
2022/09/01 04:48:43;;;;;;;;;;;;;;;14.57;68.58;102044.03;5115748;28;20362;-34
2022/09/01 04:51:09;;;;;;;;;;;;;;;14.59;68.34;102043.81;5115029;28;19912;-34
2022/09/01 04:53:38;;;;;;;;;;;;;;;14.60;69.65;102043.59;5115528;28;19912;-34
2022/09/01 04:56:04;;;;;;;;;;;;;;;14.55;69.84;102045.34;5114969;28;19970;-34
2022/09/01 04:58:29;;;;;;;;;;;;;;;14.53;69.00;102040.09;5116014;28;19954;-35
2022/09/01 05:00:54;;;;;;;;;;;;;;;14.54;68.71;102040.94;5115424;28;19915;-34
2022/09/01 05:03:22;;;;;;;;;;;;;;;14.53;69.33;102039.28;5114515;28;19916;-34
2022/09/01 05:05:49;;;;;;;;;;;;;;;14.51;68.99;102041.41;5114730;28;20325;-35
2022/09/01 05:08:16;;;;;;;;;;;;;;;14.47;69.67;102041.00;5114649;28;19912;-34
2022/09/01 05:10:43;;;;;;;;;;;;;;;14.47;68.91;102034.72;5113515;28;19911;-35
2022/09/01 05:13:11;;;;;;;;;;;;;;;14.50;68.38;102039.75;5115138;28;19911;-34
2022/09/01 05:15:37;;;;;;;;;;;;;;;14.53;68.46;102047.44;5115026;28;19973;-34
2022/09/01 05:18:08;;;;;;;;;;;;;;;14.55;68.23;102048.91;5114507;28;19911;-35
2022/09/01 05:20:35;;;;;;;;;;;;;;;14.58;68.64;102042.97;5115223;28;19943;-35
2022/09/01 05:23:00;;;;;;;;;;;;;;;14.60;68.05;102040.06;5114937;28;20379;-34
2022/09/01 05:25:26;;;;;;;;;;;;;;;14.59;68.94;102049.25;5114365;28;19956;-34
2022/09/01 05:27:51;;;;;;;;;;;;;;;14.56;69.06;102047.84;5115142;28;19911;-34
2022/09/01 05:30:17;;;;;;;;;;;;;;;14.55;68.65;102046.19;5114785;28;19911;-35
2022/09/01 05:32:46;;;;;;;;;;;;;;;14.56;68.71;102047.84;5114229;28;20355;-34
2022/09/01 05:35:11;;;;;;;;;;;;;;;14.58;68.58;102048.41;5114191;28;19920;-34
2022/09/01 05:37:37;;;;;;;;;;;;;;;14.54;68.73;102044.53;5114136;28;19918;-35
2022/09/01 05:40:05;;;;;;;;;;;;;;;14.45;69.63;102042.31;5114325;28;20376;-34
2022/09/01 05:42:31;;;;;;;;;;;;;;;14.47;68.91;102048.34;5114234;28;19916;-34
2022/09/01 05:44:57;;;;;;;;;;;;;;;14.40;69.14;102056.59;5114286;28;19918;-34
2022/09/01 05:47:24;;;;;;;;;;;;;;;14.39;69.53;102052.19;5114502;28;19912;-35
2022/09/01 05:49:52;;;;;;;;;;;;;;;14.37;69.41;102060.56;5113688;28;19912;-35
2022/09/01 05:52:24;;;;;;;;;;;;;;;14.37;70.14;102062.47;5113649;27;20359;-35
2022/09/01 05:54:50;;;;;;;;;;;;;;;14.35;69.99;102060.00;5114801;28;20006;-34
2022/09/01 05:57:16;;;;;;;;;;;;;;;14.32;70.37;102062.31;5113689;28;20002;-34
2022/09/01 05:59:41;;;;;;;;;;;;;;;14.35;69.66;102054.53;5113668;28;19998;-34
2022/09/01 06:02:08;;;;;;;;;;;;;;;14.44;69.40;102057.78;5114283;28;19916;-34
2022/09/01 06:04:34;;;;;;;;;;;;;;;14.51;69.51;102061.28;5113755;28;19911;-34
2022/09/01 06:06:59;;;;;;;;;;;;;;;14.55;69.71;102065.22;5113570;28;19916;-35
2022/09/01 06:09:25;;;;;;;;;;;;;;;14.56;69.91;102061.44;5114099;28;19923;-34
2022/09/01 06:11:51;;;;;;;;;;;;;;;14.56;69.96;102060.63;5114503;28;19978;-35
2022/09/01 06:14:17;;;;;;;;;;;;;;;14.57;69.84;102060.38;5113415;28;19912;-35
2022/09/01 06:16:42;;;;;;;;;;;;;;;14.62;69.88;102057.81;5114041;28;19938;-34
2022/09/01 06:19:07;;;;;;;;;;;;;;;14.70;70.00;102064.84;5114238;28;19918;-35
2022/09/01 06:21:33;;;;;;;;;;;;;;;14.78;69.69;102060.94;5116298;28;20081;-35
2022/09/01 06:23:58;;;;;;;;;;;;;;;14.86;69.74;102063.38;5118310;28;19912;-34
2022/09/01 06:26:28;;;;;;;;;;;;;;;14.96;69.65;102060.09;5117727;28;19923;-35
2022/09/01 06:28:55;;;;;;;;;;;;;;;15.07;69.55;102062.84;5118241;28;19957;-35
2022/09/01 06:31:22;;;;;;;;;;;;;;;15.19;68.99;102058.28;5117838;27;19916;-35
2022/09/01 06:33:50;;;;;;;;;;;;;;;15.32;68.89;102064.59;5115970;28;19961;-35
2022/09/01 06:36:16;;;;;;;;;;;;;;;15.43;67.83;102061.09;5117614;28;19911;-35
2022/09/01 06:38:41;;;;;;;;;;;;;;;15.55;68.06;102064.66;5117768;28;20362;-35
2022/09/01 06:41:09;;;;;;;;;;;;;;;15.66;66.95;102066.63;5117801;28;19918;-35
2022/09/01 06:43:35;;;;;;;;;;;;;;;15.75;66.74;102060.78;5117275;28;19912;-35
2022/09/01 06:46:01;;;;;;;;;;;;;;;15.80;66.32;102060.91;5117780;28;19956;-35
2022/09/01 06:48:26;;;;;;;;;;;;;;;15.90;66.50;102067.44;5117509;28;20320;-35
2022/09/01 06:50:51;;;;;;;;;;;;;;;15.96;65.78;102069.25;5117390;28;19951;-35
2022/09/01 06:53:17;;;;;;;;;;;;;;;16.03;65.84;102066.38;5117422;28;19998;-34
2022/09/01 06:55:46;;;;;;;;;;;;;;;16.12;65.36;102075.03;5116937;28;19919;-35
2022/09/01 06:58:14;;;;;;;;;;;;;;;16.19;65.19;102075.72;5117759;28;19920;-34
2022/09/01 07:00:40;;;;;;;;;;;;;;;16.28;65.49;102079.75;5117937;28;19915;-34
2022/09/01 07:03:08;;;;;;;;;;;;;;;16.27;64.15;102074.56;5117069;28;19915;-34
2022/09/01 07:05:36;;;;;;;;;;;;;;;16.29;63.99;102075.97;5117485;28;19911;-35
2022/09/01 07:08:06;;;;;;;;;;;;;;;16.30;63.55;102079.50;5117681;28;19916;-34
2022/09/01 07:10:31;;;;;;;;;;;;;;;16.32;63.96;102080.13;5117888;28;20014;-34
2022/09/01 07:13:00;;;;;;;;;;;;;;;16.39;64.35;102081.63;5115986;28;20323;-35
2022/09/01 07:15:26;;;;;;;;;;;;;;;16.39;63.76;102078.91;5116985;27;19978;-35
2022/09/01 07:17:54;;;;;;;;;;;;;;;16.50;63.93;102079.16;5116952;28;20428;-35
2022/09/01 07:20:21;;;;;;;;;;;;;;;16.57;64.16;102083.41;5116820;27;19912;-35
2022/09/01 07:22:47;;;;;;;;;;;;;;;16.65;63.85;102087.66;5115506;28;19918;-35
2022/09/01 07:25:13;;;;;;;;;;;;;;;16.75;64.29;102084.34;5116647;28;19911;-34
2022/09/01 07:27:39;;;;;;;;;;;;;;;16.86;64.18;102080.75;5116801;28;19915;-34
2022/09/01 07:30:08;;;;;;;;;;;;;;;16.93;63.20;102087.72;5116739;28;19912;-35
2022/09/01 07:32:33;;;;;;;;;;;;;;;17.01;63.78;102074.75;5116443;28;19954;-34
2022/09/01 07:34:59;;;;;;;;;;;;;;;17.11;63.30;102085.88;5117096;28;19999;-34
2022/09/01 07:37:25;;;;;;;;;;;;;;;17.17;62.55;102082.97;5116898;28;20338;-35
2022/09/01 07:39:50;;;;;;;;;;;;;;;17.22;63.01;102076.78;5117295;28;20082;-35
2022/09/01 07:42:17;;;;;;;;;;;;;;;17.28;62.80;102078.53;5116578;28;19994;-34
2022/09/01 07:44:43;;;;;;;;;;;;;;;17.38;62.95;102078.72;5116451;28;19911;-35
2022/09/01 07:47:09;;;;;;;;;;;;;;;17.48;62.76;102078.06;5116921;28;19918;-35
2022/09/01 07:49:36;;;;;;;;;;;;;;;17.58;62.82;102080.16;5116558;28;20006;-35
2022/09/01 07:52:02;;;;;;;;;;;;;;;17.66;62.24;102075.06;5116035;28;20347;-35
2022/09/01 07:54:29;;;;;;;;;;;;;;;17.77;61.88;102078.84;5115986;28;20363;-34
2022/09/01 07:56:54;;;;;;;;;;;;;;;17.88;62.28;102077.09;5116423;28;19912;-35
2022/09/01 07:59:20;;;;;;;;;;;;;;;17.95;61.21;102077.75;5116415;28;20228;-35
2022/09/01 08:01:46;;;;;;;;;;;;;;;18.00;61.51;102075.91;5115806;28;19965;-34
2022/09/01 08:04:11;;;;;;;;;;;;;;;18.09;61.50;102083.72;5115875;28;19961;-34
2022/09/01 08:06:37;;;;;;;;;;;;;;;18.16;60.38;102079.72;5116089;28;20055;-35
2022/09/01 08:09:05;;;;;;;;;;;;;;;18.25;60.42;102080.97;5115975;28;19951;-34
2022/09/01 08:11:31;;;;;;;;;;;;;;;18.33;60.67;102081.59;5115891;28;19915;-35
2022/09/01 08:14:00;;;;;;;;;;;;;;;18.43;61.13;102087.19;5115875;28;20267;-34
2022/09/01 08:16:27;;;;;;;;;;;;;;;18.57;60.19;102085.75;5115850;28;20011;-35
2022/09/01 08:18:52;;;;;;;;;;;;;;;18.67;58.82;102082.31;5116173;28;20310;-35
2022/09/01 08:21:20;;;;;;;;;;;;;;;18.76;58.58;102089.03;5115835;28;19911;-35
2022/09/01 08:23:46;;;;;;;;;;;;;;;18.84;59.27;102083.13;5115580;28;19912;-34
2022/09/01 08:26:13;;;;;;;;;;;;;;;18.93;58.03;102086.19;5115687;28;20002;-35
2022/09/01 08:28:38;;;;;;;;;;;;;;;18.99;57.36;102083.28;5115760;28;19911;-35
2022/09/01 08:31:09;;;;;;;;;;;;;;;19.06;57.84;102074.84;5115294;28;19919;-35
2022/09/01 08:33:34;;;;;;;;;;;;;;;19.15;58.17;102081.53;5116183;28;19911;-35
2022/09/01 08:36:00;;;;;;;;;;;;;;;19.26;57.65;102076.97;5115471;28;20417;-35
2022/09/01 08:38:26;;;;;;;;;;;;;;;19.38;57.10;102079.56;5116048;28;19912;-35
2022/09/01 08:40:54;;;;;;;;;;;;;;;19.47;57.63;102077.97;5115798;28;19923;-35
2022/09/01 08:43:25;;;;;;;;;;;;;;;19.56;56.33;102081.91;5115506;28;20395;-35
2022/09/01 08:45:55;;;;;;;;;;;;;;;19.61;56.50;102079.22;5115374;28;19916;-35
2022/09/01 08:48:20;;;;;;;;;;;;;;;19.74;56.20;102078.78;5115324;28;19911;-35
2022/09/01 08:50:50;;;;;;;;;;;;;;;19.83;55.79;102078.31;5115192;28;19965;-35
2022/09/01 08:53:27;;;;;;;;;;;;;;;19.91;55.91;102083.28;5115210;28;19912;-35
2022/09/01 08:55:55;;;;;;;;;;;;;;;19.97;54.82;102082.25;5115040;28;19958;-35
2022/09/01 08:58:20;;;;;;;;;;;;;;;19.96;54.95;102078.69;5114840;28;19911;-35
2022/09/01 09:00:52;;;;;;;;;;;;;;;20.10;55.36;102079.03;5114982;27;19916;-34
2022/09/01 09:03:18;;;;;;;;;;;;;;;20.24;55.17;102079.41;5115450;28;19950;-35
2022/09/01 09:06:02;;;;;;;;;;;;;;;20.35;54.20;102070.13;5114848;28;19965;-36
2022/09/01 09:08:34;;;;;;;;;;;;;;;20.40;54.64;102077.56;5115166;28;19918;-35
2022/09/01 09:11:17;;;;;;;;;;;;;;;20.45;53.39;102067.44;5114765;28;19911;-35
2022/09/01 09:14:01;;;;;;;;;;;;;;;20.49;53.42;102060.31;5115143;28;19918;-35
2022/09/01 09:16:36;;;;;;;;;;;;;;;20.62;54.23;102071.94;5114310;28;19963;-35
2022/09/01 09:19:07;;;;;;;;;;;;;;;20.77;52.90;102066.47;5114857;28;19916;-35
2022/09/01 09:21:33;;;;;;;;;;;;;;;20.90;52.53;102073.41;5115527;27;19953;-35
2022/09/01 09:24:21;;;;;;;;;;;;;;;20.88;51.24;102079.16;5115132;28;19959;-36
2022/09/01 09:26:47;;;;;;;;;;;;;;;20.95;52.34;102065.16;5031741;28;19913;-34
2022/09/01 09:29:12;;;;;;;;;;;;;;;21.07;51.94;102060.22;5032221;28;19913;-34
2022/09/01 09:31:44;;;;;;;;;;;;;;;21.18;51.60;102050.06;5031569;28;19912;-35
2022/09/01 09:34:31;;;;;;;;;;;;;;;21.27;50.68;102049.25;5032170;28;20007;-35
2022/09/01 09:36:59;;;;;;;;;;;;;;;21.40;49.69;102049.84;5021483;28;19920;-35
2022/09/01 09:39:24;;;;;;;;;;;;;;;21.53;50.89;102049.31;5031338;28;19935;-35
2022/09/01 09:42:06;;;;;;;;;;;;;;;21.72;49.43;102044.91;5031606;28;19928;-35
2022/09/01 09:44:31;;;;;;;;;;;;;;;21.90;49.99;102045.41;5031308;28;19960;-35
2022/09/01 09:46:57;;;;;;;;;;;;;;;22.05;47.83;102028.84;5031566;28;20368;-35
2022/09/01 09:49:24;;;;;;;;;;;;;;;22.20;48.29;102037.09;5031486;28;19917;-35
2022/09/01 09:51:56;;;;;;;;;;;;;;;22.28;47.50;102035.72;5031450;28;19920;-34
2022/09/01 09:54:21;;;;;;;;;;;;;;;22.32;46.03;102034.88;5031267;28;19912;-35
2022/09/01 09:56:47;;;;;;;;;;;;;;;22.40;47.63;102024.34;5030635;28;19967;-35
2022/09/01 09:59:18;;;;;;;;;;;;;;;22.49;45.55;102025.41;5030873;28;19984;-35
2022/09/01 10:01:43;;;;;;;;;;;;;;;22.47;44.67;102024.88;5030912;28;19920;-34
2022/09/01 10:04:08;;;;;;;;;;;;;;;22.54;44.07;102033.66;5085600;28;19911;-35
2022/09/01 10:06:33;;;;;;;;;;;;;;;22.47;43.62;102022.97;5114500;28;19998;-34
2022/09/01 10:09:13;;;;;;;;;;;;;;;22.60;44.68;102019.59;5113439;28;19992;-35
2022/09/01 10:11:39;;;;;;;;;;;;;;;22.74;42.57;102022.56;5114546;28;19912;-34
2022/09/01 10:14:08;;;;;;;;;;;;;;;22.84;42.00;102016.16;5114051;28;19911;-35
2022/09/01 10:16:36;;;;;;;;;;;;;;;23.00;43.38;102028.75;5114351;28;19918;-35
2022/09/01 10:19:01;;;;;;;;;;;;;;;23.02;42.70;102015.50;5114022;28;19912;-35
2022/09/01 10:21:37;;;;;;;;;;;;;;;23.20;42.52;102018.69;5114057;28;20393;-34
2022/09/01 10:24:22;;;;;;;;;;;;;;;23.30;41.28;102007.56;5113601;28;19912;-34
2022/09/01 10:26:50;;;;;;;;;;;;;;;23.16;40.28;102012.91;5098885;28;19912;-35
2022/09/01 10:29:18;;;;;;;;;;;;;;;23.22;40.58;101999.91;5114050;28;19980;-35
2022/09/01 10:31:44;;;;;;;;;;;;;;;23.23;37.74;102016.19;5113866;28;19912;-35
2022/09/01 10:34:12;;;;;;;;;;;;;;;23.31;40.16;102010.03;5113526;28;19912;-35
2022/09/01 10:36:40;;;;;;;;;;;;;;;23.39;38.00;102014.13;5113781;28;19911;-34
2022/09/01 10:39:09;;;;;;;;;;;;;;;23.35;37.13;102005.59;5113708;28;19911;-34
2022/09/01 10:41:56;;;;;;;;;;;;;;;23.49;39.78;102008.50;5113752;28;19919;-35
2022/09/01 10:44:23;;;;;;;;;;;;;;;23.68;37.75;102002.28;5112936;28;20071;-35
2022/09/01 10:46:49;;;;;;;;;;;;;;;23.76;37.67;101996.13;5113282;28;19911;-34
2022/09/01 10:49:19;;;;;;;;;;;;;;;23.78;37.89;101997.47;5114112;28;20323;-35
2022/09/01 10:51:45;;;;;;;;;;;;;;;23.84;36.99;101996.31;5113645;28;20275;-34
2022/09/01 10:54:30;;;;;;;;;;;;;;;23.94;36.90;101992.59;5113086;28;19916;-35
2022/09/01 10:56:57;;;;;;;;;;;;;;;24.05;36.86;101987.78;5113433;28;19911;-35
2022/09/01 10:59:25;;;;;;;;;;;;;;;24.19;38.39;101977.66;5113488;28;20116;-35
2022/09/01 11:01:51;;;;;;;;;;;;;;;24.27;37.48;101985.31;5113338;28;19920;-35
2022/09/01 11:04:20;;;;;;;;;;;;;;;24.25;36.07;101976.47;5112841;28;20101;-35
2022/09/01 11:06:57;;;;;;;;;;;;;;;24.26;35.36;101980.09;5113084;28;19919;-34
2022/09/01 11:09:31;;;;;;;;;;;;;;;24.31;36.26;101980.03;5116695;28;19919;-35
2022/09/01 11:11:56;;;;;;;;;;;;;;;24.45;36.67;101977.34;5117213;28;19969;-34
2022/09/01 11:14:23;;;;;;;;;;;;;;;24.50;36.17;101989.19;5116624;28;20367;-35
2022/09/01 11:17:17;;;;;;;;;;;;;;;24.66;36.11;101993.38;5117494;28;19930;-34
2022/09/01 11:19:42;;;;;;;;;;;;;;;24.82;36.52;101974.59;5098664;28;20412;-34
2022/09/01 11:22:07;;;;;;;;;;;;;;;24.93;36.31;101978.03;5117314;28;19912;-35
2022/09/01 11:24:40;;;;;;;;;;;;;;;25.01;33.87;101979.31;5116544;28;19912;-35
2022/09/01 11:27:06;;;;;;;;;;;;;;;25.17;33.37;101972.41;5116500;28;20321;-35
2022/09/01 11:29:50;;;;;;;;;;;;;;;25.22;33.12;101977.06;5116976;28;19918;-35
2022/09/01 11:32:15;;;;;;;;;;;;;;;24.74;32.28;101980.81;5116705;28;19964;-35
2022/09/01 11:34:41;;;;;;;;;;;;;;;24.88;33.53;101970.63;5116415;28;19916;-35
2022/09/01 11:37:13;;;;;;;;;;;;;;;24.83;32.58;101964.38;5116556;28;19911;-34
2022/09/01 11:39:40;;;;;;;;;;;;;;;24.91;33.79;101967.28;5116984;28;19911;-34
2022/09/01 11:42:22;;;;;;;;;;;;;;;24.95;33.42;101955.63;5116750;28;19937;-35
2022/09/01 11:44:56;;;;;;;;;;;;;;;25.06;33.12;101944.06;5116974;28;20013;-34
2022/09/01 11:47:42;;;;;;;;;;;;;;;25.12;32.72;101964.22;5116818;28;20328;-34
2022/09/01 11:50:08;;;;;;;;;;;;;;;25.04;32.16;101962.13;5116729;28;19987;-35
2022/09/01 11:52:34;;;;;;;;;;;;;;;25.04;31.41;101954.63;5116985;28;20263;-35
2022/09/01 11:55:00;;;;;;;;;;;;;;;25.03;31.64;101952.97;5116069;28;19926;-35
2022/09/01 11:57:30;;;;;;;;;;;;;;;24.92;30.82;101948.72;5116216;28;19911;-35
2022/09/01 11:59:56;;;;;;;;;;;;;;;24.93;31.66;101942.88;5116060;28;19922;-36
2022/09/01 12:02:32;;;;;;;;;;;;;;;25.09;31.83;101945.47;5116689;27;19934;-36
2022/09/01 12:04:59;;;;;;;;;;;;;;;25.09;30.83;101940.75;5116340;28;19918;-35
2022/09/01 12:07:39;;;;;;;;;;;;;;;25.22;29.87;101941.88;5116272;28;19912;-35
2022/09/01 12:10:16;;;;;;;;;;;;;;;25.42;30.96;101944.28;5115809;28;19945;-35
2022/09/01 12:12:41;;;;;;;;;;;;;;;25.56;31.12;101943.50;5116656;28;20336;-35
2022/09/01 12:15:12;;;;;;;;;;;;;;;25.70;31.19;101933.25;5115879;28;20014;-35
2022/09/01 12:17:37;;;;;;;;;;;;;;;25.81;29.62;101937.47;5115526;28;19919;-35
2022/09/01 12:20:41;;;;;;;;;;;;;;;25.72;29.59;101936.56;5115828;28;19911;-35
2022/09/01 12:23:26;;;;;;;;;;;;;;;25.78;29.44;101934.53;5033263;28;19956;-35
2022/09/01 12:25:54;;;;;;;;;;;;;;;25.69;28.42;101943.50;5032685;28;20318;-34
2022/09/01 12:28:22;;;;;;;;;;;;;;;25.49;27.33;101934.78;5032897;28;19916;-34
2022/09/01 12:30:48;;;;;;;;;;;;;;;25.46;28.19;101935.38;5032770;28;19996;-34
2022/09/01 12:33:16;;;;;;;;;;;;;;;25.56;28.14;101938.78;5032772;28;20027;-34
2022/09/01 12:35:41;;;;;;;;;;;;;;;25.58;29.07;101930.19;5032539;28;19963;-35
2022/09/01 12:38:20;;;;;;;;;;;;;;;25.64;27.32;101926.19;5032433;28;19972;-35
2022/09/01 12:40:56;;;;;;;;;;;;;;;25.72;26.61;101924.63;5032770;28;19964;-35
2022/09/01 12:43:27;;;;;;;;;;;;;;;25.68;27.81;101932.75;5032543;28;20369;-34
2022/09/01 12:45:52;;;;;;;;;;;;;;;25.77;28.21;101919.88;5032285;28;20311;-35
2022/09/01 12:48:32;;;;;;;;;;;;;;;25.76;28.67;101920.16;5032315;28;20012;-34